Time;durP1;ratioP1;P1;durP2;ratioP2;P2;SDS_P1;SDS_P2;PMS_P1;PMS_P2;Temp;Humidity;BMP_temperature;BMP_pressure;BME280_temperature;BME280_humidity;BME280_pressure;Samples;Min_cycle;Max_cycle;Signal;HPM_P1;HPM_P2
2022/01/31 00:01:52;;;;;;;;;;;-0.70;99.90;;;;;;5032049;28;20434;-48
2022/01/31 00:04:19;;;;;;;;;;;-0.60;99.90;;;;;;5031951;28;19972;-49
2022/01/31 00:06:48;;;;;;;;;;;-0.50;99.90;;;;;;5029751;28;19937;-49
2022/01/31 00:09:16;;;;;;;;;;;-0.60;99.90;;;;;;5030178;28;20030;-48
2022/01/31 00:11:54;;;;;;;;;;;-0.70;99.90;;;;;;5030791;28;19925;-48
2022/01/31 00:14:31;;;;;;;;;;;-0.80;99.90;;;;;;5029688;28;19932;-48
2022/01/31 00:16:58;;;;;;;;;;;-0.80;99.90;;;;;;5021196;28;20031;-49
2022/01/31 00:19:25;;;;;;;;;;;-0.80;99.90;;;;;;5029821;28;19925;-48
2022/01/31 00:21:52;;;;;;;;;;;-0.70;99.90;;;;;;5030586;28;20467;-49
2022/01/31 00:24:18;;;;;;;;;;;-0.70;99.90;;;;;;5027699;28;19975;-48
2022/01/31 00:26:46;;;;;;;;;;;-0.70;99.90;;;;;;5031166;28;19925;-48
2022/01/31 00:29:13;;;;;;;;;;;-0.80;99.90;;;;;;5027856;28;19979;-49
2022/01/31 00:31:40;;;;;;;;;;;-0.80;99.90;;;;;;5030050;28;19986;-48
2022/01/31 00:34:07;;;;;;;;;;;-0.90;99.90;;;;;;5030236;28;20319;-48
2022/01/31 00:36:34;;;;;;;;;;;-0.90;99.90;;;;;;5028905;28;20003;-48
2022/01/31 00:39:00;;;;;;;;;;;-0.80;99.90;;;;;;5029194;28;19925;-48
2022/01/31 00:41:27;;;;;;;;;;;-0.90;99.90;;;;;;5030200;28;19925;-47
2022/01/31 00:44:00;;;;;;;;;;;-1.00;99.90;;;;;;5030040;28;19925;-48
2022/01/31 00:46:33;;;;;;;;;;;-1.00;99.90;;;;;;5029902;28;19925;-48
2022/01/31 00:49:00;;;;;;;;;;;-1.00;99.90;;;;;;5028627;28;19929;-49
2022/01/31 00:51:27;;;;;;;;;;;-1.00;99.90;;;;;;5031396;28;19929;-48
2022/01/31 00:53:54;;;;;;;;;;;-1.00;99.90;;;;;;5031580;28;20406;-48
2022/01/31 00:56:20;;;;;;;;;;;-0.90;99.90;;;;;;5031182;28;19925;-49
2022/01/31 00:58:47;;;;;;;;;;;-0.90;99.90;;;;;;5030495;28;20062;-48
2022/01/31 01:01:15;;;;;;;;;;;-0.50;99.90;;;;;;5034758;28;19955;-48
2022/01/31 01:03:42;;;;;;;;;;;-0.50;99.90;;;;;;5035756;28;19925;-48
2022/01/31 01:06:10;;;;;;;;;;;-0.50;99.90;;;;;;5034253;28;19933;-49
2022/01/31 01:08:37;;;;;;;;;;;-0.50;99.90;;;;;;5030731;28;19948;-48
2022/01/31 01:11:04;;;;;;;;;;;-0.50;99.90;;;;;;5033732;28;19925;-48
2022/01/31 01:13:31;;;;;;;;;;;-0.50;99.90;;;;;;5033487;28;19987;-49
2022/01/31 01:15:58;;;;;;;;;;;-0.50;99.90;;;;;;5033522;28;19925;-48
2022/01/31 01:18:26;;;;;;;;;;;-0.50;99.90;;;;;;5033437;28;19979;-48
2022/01/31 01:20:53;;;;;;;;;;;-0.50;99.90;;;;;;5029773;28;19979;-49
2022/01/31 01:23:19;;;;;;;;;;;-0.50;99.90;;;;;;5034961;28;19983;-48
2022/01/31 01:25:47;;;;;;;;;;;-0.50;99.90;;;;;;5035341;28;20361;-50
2022/01/31 01:28:14;;;;;;;;;;;-0.50;99.90;;;;;;5034254;28;19929;-48
2022/01/31 01:30:41;;;;;;;;;;;-0.50;99.90;;;;;;5034931;28;19991;-49
2022/01/31 01:33:12;;;;;;;;;;;-0.50;99.90;;;;;;5034806;28;19979;-49
2022/01/31 01:35:40;;;;;;;;;;;-0.50;99.90;;;;;;5035223;28;19926;-48
2022/01/31 01:38:07;;;;;;;;;;;-0.50;99.90;;;;;;5033797;28;19929;-49
2022/01/31 01:40:35;;;;;;;;;;;-0.50;99.90;;;;;;5033644;28;19971;-48
2022/01/31 01:43:02;;;;;;;;;;;-0.50;99.90;;;;;;5033413;28;19925;-49
2022/01/31 01:45:28;;;;;;;;;;;-0.50;99.90;;;;;;5032697;28;20346;-48
2022/01/31 01:47:55;;;;;;;;;;;-0.50;99.90;;;;;;5033362;28;20051;-47
2022/01/31 01:50:22;;;;;;;;;;;-0.40;99.90;;;;;;5032685;28;20055;-48
2022/01/31 01:52:50;;;;;;;;;;;-0.50;99.90;;;;;;5034768;28;20280;-48
2022/01/31 01:55:17;;;;;;;;;;;-0.50;99.90;;;;;;5034547;28;19932;-48
2022/01/31 01:57:44;;;;;;;;;;;-0.30;99.90;;;;;;5034472;28;19947;-48
2022/01/31 02:00:16;;;;;;;;;;;-0.20;99.90;;;;;;5034231;28;20236;-48
2022/01/31 02:02:43;;;;;;;;;;;-0.10;99.90;;;;;;5034379;28;19979;-48
2022/01/31 02:05:10;;;;;;;;;;;-0.10;99.90;;;;;;5034422;28;19929;-48
2022/01/31 02:07:37;;;;;;;;;;;-0.10;99.90;;;;;;5034560;28;20272;-48
2022/01/31 02:10:06;;;;;;;;;;;-0.20;99.90;;;;;;5034358;28;19971;-48
2022/01/31 02:12:38;;;;;;;;;;;-0.30;99.90;;;;;;5033419;28;19988;-48
2022/01/31 02:15:05;;;;;;;;;;;-0.30;99.90;;;;;;5034064;28;19925;-48
2022/01/31 02:17:32;;;;;;;;;;;-0.40;99.90;;;;;;5033610;28;20383;-49
2022/01/31 02:19:58;;;;;;;;;;;-0.60;99.90;;;;;;5075437;22;19994;-51
2022/01/31 02:22:26;;;;;;;;;;;-0.60;99.90;;;;;;5056075;28;19929;-51
2022/01/31 02:24:53;;;;;;;;;;;-0.70;99.90;;;;;;5056449;28;19966;-51
2022/01/31 02:27:23;;;;;;;;;;;-0.70;99.90;;;;;;5055654;28;19962;-51
2022/01/31 02:29:50;;;;;;;;;;;-0.70;99.90;;;;;;5054006;28;19978;-51
2022/01/31 02:32:20;;;;;;;;;;;-0.70;99.90;;;;;;5056010;28;20444;-52
2022/01/31 02:34:46;;;;;;;;;;;-0.70;99.90;;;;;;5056145;28;19925;-52
2022/01/31 02:37:13;;;;;;;;;;;-0.70;99.90;;;;;;5056190;28;19925;-51
2022/01/31 02:39:41;;;;;;;;;;;-0.60;99.90;;;;;;5055548;28;20349;-51
2022/01/31 02:42:09;;;;;;;;;;;-0.50;99.90;;;;;;5055198;28;19974;-51
2022/01/31 02:44:39;;;;;;;;;;;-0.40;99.90;;;;;;5055328;28;19929;-51
2022/01/31 02:47:10;;;;;;;;;;;-0.40;99.90;;;;;;5055824;28;19932;-51
2022/01/31 02:49:46;;;;;;;;;;;-0.40;99.90;;;;;;5055372;28;20370;-51
2022/01/31 02:52:14;;;;;;;;;;;-0.30;99.90;;;;;;5055786;28;20012;-51
2022/01/31 02:54:42;;;;;;;;;;;-0.30;99.90;;;;;;5053945;28;19970;-51
2022/01/31 02:57:09;;;;;;;;;;;-0.40;99.90;;;;;;5052158;28;19928;-51
2022/01/31 02:59:36;;;;;;;;;;;-0.30;99.90;;;;;;5046392;28;19929;-51
2022/01/31 03:02:03;;;;;;;;;;;-0.40;99.90;;;;;;5046995;28;20342;-51
2022/01/31 03:04:30;;;;;;;;;;;-0.30;99.90;;;;;;5055168;28;20048;-50
2022/01/31 03:06:57;;;;;;;;;;;-0.30;99.90;;;;;;5055475;28;19928;-51
2022/01/31 03:09:23;;;;;;;;;;;-0.20;99.90;;;;;;5054980;28;19929;-51
2022/01/31 03:11:52;;;;;;;;;;;-0.30;99.90;;;;;;5055336;28;19925;-51
2022/01/31 03:14:19;;;;;;;;;;;-0.30;99.90;;;;;;5054964;28;19925;-51
2022/01/31 03:16:46;;;;;;;;;;;-0.40;99.90;;;;;;5055425;28;19995;-51
2022/01/31 03:19:13;;;;;;;;;;;-0.30;99.90;;;;;;5053809;28;19929;-51
2022/01/31 03:21:40;;;;;;;;;;;-0.10;99.90;;;;;;5046598;28;19972;-51
2022/01/31 03:24:07;;;;;;;;;;;0.00;99.90;;;;;;5053917;28;19925;-51
2022/01/31 03:26:34;;;;;;;;;;;0.20;99.90;;;;;;5054653;28;19925;-51
2022/01/31 03:29:02;;;;;;;;;;;0.20;99.90;;;;;;5054973;28;19970;-50
2022/01/31 03:31:29;;;;;;;;;;;0.10;99.90;;;;;;5055038;28;20417;-51
2022/01/31 03:33:56;;;;;;;;;;;0.00;99.90;;;;;;5053096;28;20402;-51
2022/01/31 03:36:22;;;;;;;;;;;0.00;99.90;;;;;;5046925;28;20391;-51
2022/01/31 03:38:50;;;;;;;;;;;0.10;99.90;;;;;;5054534;28;19925;-51
2022/01/31 03:41:17;;;;;;;;;;;0.10;99.90;;;;;;5054327;28;19925;-51
2022/01/31 03:43:44;;;;;;;;;;;0.20;99.90;;;;;;5052983;28;19990;-50
2022/01/31 03:46:12;;;;;;;;;;;0.10;99.90;;;;;;5046779;28;19925;-51
2022/01/31 03:48:40;;;;;;;;;;;0.10;99.90;;;;;;5042395;28;19932;-51
2022/01/31 03:51:07;;;;;;;;;;;0.10;99.90;;;;;;5043099;28;19929;-51
2022/01/31 03:53:34;;;;;;;;;;;0.30;99.90;;;;;;5054127;28;19978;-51
2022/01/31 03:56:00;;;;;;;;;;;0.40;99.90;;;;;;5054757;28;19974;-52
2022/01/31 03:58:27;;;;;;;;;;;0.40;99.90;;;;;;5054101;28;19934;-52
2022/01/31 04:00:54;;;;;;;;;;;0.30;99.90;;;;;;5054179;28;20386;-52
2022/01/31 04:03:22;;;;;;;;;;;0.30;99.90;;;;;;5053960;28;19932;-53
2022/01/31 04:05:49;;;;;;;;;;;0.50;99.90;;;;;;5044143;28;20453;-52
2022/01/31 04:08:19;;;;;;;;;;;0.50;99.90;;;;;;5049465;28;19925;-51
2022/01/31 04:10:46;;;;;;;;;;;0.40;99.90;;;;;;5042932;28;19935;-52
2022/01/31 04:13:16;;;;;;;;;;;0.50;99.90;;;;;;5036078;28;19979;-51
2022/01/31 04:15:43;;;;;;;;;;;0.60;99.90;;;;;;5034166;28;20015;-52
2022/01/31 04:18:10;;;;;;;;;;;0.70;99.90;;;;;;5033103;28;19972;-52
2022/01/31 04:20:38;;;;;;;;;;;0.80;99.90;;;;;;5042811;28;19928;-51
2022/01/31 04:23:09;;;;;;;;;;;1.00;99.90;;;;;;5039155;28;19947;-51
2022/01/31 04:25:45;;;;;;;;;;;1.30;99.90;;;;;;5034616;28;19979;-51
2022/01/31 04:28:20;;;;;;;;;;;1.30;99.90;;;;;;5040668;28;19925;-52
2022/01/31 04:30:53;;;;;;;;;;;1.20;99.90;;;;;;5046135;28;20445;-52
2022/01/31 04:33:20;;;;;;;;;;;1.10;99.90;;;;;;5045307;28;20345;-52
2022/01/31 04:35:48;;;;;;;;;;;1.10;99.90;;;;;;5040740;28;20634;-53
2022/01/31 04:38:16;;;;;;;;;;;1.10;99.90;;;;;;5050549;28;20015;-51
2022/01/31 04:40:43;;;;;;;;;;;1.20;99.90;;;;;;5052100;28;20375;-51
2022/01/31 04:43:10;;;;;;;;;;;1.20;99.90;;;;;;5051494;28;19978;-51
2022/01/31 04:45:46;;;;;;;;;;;1.20;99.90;;;;;;5050609;28;20322;-51
2022/01/31 04:48:12;;;;;;;;;;;1.30;99.90;;;;;;5050997;28;20349;-51
2022/01/31 04:50:39;;;;;;;;;;;1.30;99.90;;;;;;5041062;28;19929;-51
2022/01/31 04:53:07;;;;;;;;;;;1.30;99.90;;;;;;5032966;28;19929;-51
2022/01/31 04:55:35;;;;;;;;;;;1.40;99.90;;;;;;5032953;28;19925;-52
2022/01/31 04:58:01;;;;;;;;;;;1.50;99.90;;;;;;5041826;28;20020;-51
2022/01/31 05:00:28;;;;;;;;;;;1.60;99.90;;;;;;5046650;28;19928;-51
2022/01/31 05:02:55;;;;;;;;;;;1.80;99.90;;;;;;5047441;28;19929;-57
2022/01/31 05:05:22;;;;;;;;;;;2.00;99.90;;;;;;5039352;28;19925;-51
2022/01/31 05:07:51;;;;;;;;;;;1.90;99.90;;;;;;5046258;28;19933;-51
2022/01/31 05:10:19;;;;;;;;;;;2.10;99.90;;;;;;5052831;28;19932;-51
2022/01/31 05:12:46;;;;;;;;;;;2.10;99.90;;;;;;5053107;28;19937;-51
2022/01/31 05:15:13;;;;;;;;;;;2.00;99.90;;;;;;5052637;28;19928;-52
2022/01/31 05:17:40;;;;;;;;;;;1.90;99.90;;;;;;5052700;28;19928;-52
2022/01/31 05:20:07;;;;;;;;;;;1.80;99.90;;;;;;5051308;28;19990;-51
2022/01/31 05:22:34;;;;;;;;;;;1.80;99.90;;;;;;5036376;28;19936;-51
2022/01/31 05:25:00;;;;;;;;;;;1.80;99.90;;;;;;5044880;28;20264;-56
2022/01/31 05:27:29;;;;;;;;;;;1.80;99.90;;;;;;5037452;28;20308;-51
2022/01/31 05:29:55;;;;;;;;;;;1.80;99.90;;;;;;5051198;28;19983;-51
2022/01/31 05:32:22;;;;;;;;;;;1.90;99.90;;;;;;5037692;28;19925;-51
2022/01/31 05:34:49;;;;;;;;;;;1.90;99.90;;;;;;5036999;28;19925;-52
2022/01/31 05:37:16;;;;;;;;;;;1.90;99.90;;;;;;5047982;28;19971;-52
2022/01/31 05:39:44;;;;;;;;;;;2.10;99.90;;;;;;5032197;28;19933;-51
2022/01/31 05:42:11;;;;;;;;;;;2.20;99.90;;;;;;5032353;28;19926;-51
2022/01/31 05:44:39;;;;;;;;;;;2.20;99.90;;;;;;5033140;28;19988;-51
2022/01/31 05:47:06;;;;;;;;;;;2.10;99.90;;;;;;5047059;28;19925;-52
2022/01/31 05:49:33;;;;;;;;;;;2.00;99.90;;;;;;5035252;28;20051;-51
2022/01/31 05:52:03;;;;;;;;;;;1.90;99.90;;;;;;5036325;28;19936;-52
2022/01/31 05:54:31;;;;;;;;;;;2.00;99.90;;;;;;5035863;28;20330;-51
2022/01/31 05:56:58;;;;;;;;;;;2.10;99.90;;;;;;5035861;28;20003;-51
2022/01/31 05:59:25;;;;;;;;;;;2.10;99.90;;;;;;5041160;28;19924;-52
2022/01/31 06:01:53;;;;;;;;;;;2.10;99.90;;;;;;5053722;28;20287;-51
2022/01/31 06:04:20;;;;;;;;;;;2.20;99.90;;;;;;5054376;28;19979;-51
2022/01/31 06:06:49;;;;;;;;;;;2.20;99.90;;;;;;5042945;28;19933;-51
2022/01/31 06:09:16;;;;;;;;;;;2.50;99.90;;;;;;5035570;28;19925;-51
2022/01/31 06:11:44;;;;;;;;;;;2.70;99.90;;;;;;5045457;28;19928;-53
2022/01/31 06:14:11;;;;;;;;;;;2.70;99.90;;;;;;5053591;28;19924;-51
2022/01/31 06:16:38;;;;;;;;;;;2.70;99.90;;;;;;5047012;28;19925;-51
2022/01/31 06:19:06;;;;;;;;;;;2.80;99.90;;;;;;5036315;28;19925;-51
2022/01/31 06:21:33;;;;;;;;;;;2.80;99.90;;;;;;5046267;28;19979;-51
2022/01/31 06:24:00;;;;;;;;;;;2.80;99.90;;;;;;5035437;28;19925;-51
2022/01/31 06:26:28;;;;;;;;;;;2.90;99.90;;;;;;5042774;28;19929;-51
2022/01/31 06:28:54;;;;;;;;;;;2.90;99.90;;;;;;5053838;28;19931;-52
2022/01/31 06:31:21;;;;;;;;;;;3.00;99.90;;;;;;5054126;28;19928;-51
2022/01/31 06:33:48;;;;;;;;;;;3.10;99.90;;;;;;5045435;28;19925;-51
2022/01/31 06:36:16;;;;;;;;;;;3.20;99.90;;;;;;5034720;28;19975;-52
2022/01/31 06:38:43;;;;;;;;;;;3.20;99.90;;;;;;5035180;28;20292;-51
2022/01/31 06:41:11;;;;;;;;;;;3.20;99.90;;;;;;5035489;28;19925;-51
2022/01/31 06:43:37;;;;;;;;;;;3.10;99.90;;;;;;5035463;28;20306;-51
2022/01/31 06:46:04;;;;;;;;;;;3.10;99.90;;;;;;5042271;28;19970;-51
2022/01/31 06:48:31;;;;;;;;;;;3.10;99.90;;;;;;5052380;28;19925;-52
2022/01/31 06:50:57;;;;;;;;;;;3.20;99.90;;;;;;5054611;28;19955;-51
2022/01/31 06:53:27;;;;;;;;;;;3.10;99.90;;;;;;5044903;28;19929;-51
2022/01/31 06:55:54;;;;;;;;;;;3.00;99.90;;;;;;5037576;28;20016;-52
2022/01/31 06:58:21;;;;;;;;;;;3.00;99.90;;;;;;5044780;28;19947;-52
2022/01/31 07:00:48;;;;;;;;;;;2.90;99.90;;;;;;5034663;28;19929;-51
2022/01/31 07:03:15;;;;;;;;;;;2.90;99.90;;;;;;5050391;28;19928;-51
2022/01/31 07:05:42;;;;;;;;;;;2.80;99.90;;;;;;5034493;28;19925;-52
2022/01/31 07:08:09;;;;;;;;;;;2.90;99.90;;;;;;5038421;28;20012;-52
2022/01/31 07:10:38;;;;;;;;;;;2.90;99.90;;;;;;5049951;28;20004;-52
2022/01/31 07:13:12;;;;;;;;;;;2.80;99.90;;;;;;5036894;28;19929;-52
2022/01/31 07:15:39;;;;;;;;;;;3.00;99.90;;;;;;5039590;28;19925;-51
2022/01/31 07:18:06;;;;;;;;;;;3.20;99.90;;;;;;5034071;28;19925;-51
2022/01/31 07:20:38;;;;;;;;;;;3.40;99.90;;;;;;5034851;28;19925;-51
2022/01/31 07:23:10;;;;;;;;;;;3.60;99.90;;;;;;5034523;28;20027;-51
2022/01/31 07:25:38;;;;;;;;;;;3.70;99.90;;;;;;5034564;28;19925;-51
2022/01/31 07:28:08;;;;;;;;;;;3.80;99.90;;;;;;5051247;28;19974;-51
2022/01/31 07:30:34;;;;;;;;;;;4.00;99.90;;;;;;5039305;28;20443;-51
2022/01/31 07:33:02;;;;;;;;;;;4.20;99.90;;;;;;5042439;28;19925;-51
2022/01/31 07:35:28;;;;;;;;;;;4.20;99.90;;;;;;5034274;28;20379;-52
2022/01/31 07:37:55;;;;;;;;;;;4.30;99.90;;;;;;5033918;28;19975;-51
2022/01/31 07:40:22;;;;;;;;;;;4.40;99.90;;;;;;5043978;28;19962;-52
2022/01/31 07:42:50;;;;;;;;;;;4.40;99.90;;;;;;5054485;28;19925;-52
2022/01/31 07:45:17;;;;;;;;;;;4.50;99.90;;;;;;5048900;28;19971;-52
2022/01/31 07:47:43;;;;;;;;;;;4.50;99.90;;;;;;5035405;28;19984;-51
2022/01/31 07:50:11;;;;;;;;;;;4.70;99.90;;;;;;5033285;28;19940;-51
2022/01/31 07:52:38;;;;;;;;;;;4.60;99.90;;;;;;5033775;28;19929;-51
2022/01/31 07:55:05;;;;;;;;;;;4.70;99.90;;;;;;5047761;28;19925;-51
2022/01/31 07:57:33;;;;;;;;;;;4.80;99.90;;;;;;5052510;28;19925;-51
2022/01/31 08:00:02;;;;;;;;;;;4.70;99.90;;;;;;5044345;28;20517;-51
2022/01/31 08:02:29;;;;;;;;;;;4.50;99.90;;;;;;5033948;28;20012;-51
2022/01/31 08:04:56;;;;;;;;;;;4.30;99.90;;;;;;5045782;28;19994;-52
2022/01/31 08:07:23;;;;;;;;;;;4.20;99.90;;;;;;5039126;28;20338;-52
2022/01/31 08:09:49;;;;;;;;;;;4.20;99.90;;;;;;5033388;28;20383;-52
2022/01/31 08:12:16;;;;;;;;;;;4.20;99.90;;;;;;5034773;28;19995;-52
2022/01/31 08:14:44;;;;;;;;;;;4.20;99.90;;;;;;5034929;28;19932;-52
2022/01/31 08:17:12;;;;;;;;;;;4.20;99.90;;;;;;5036974;28;19925;-52
2022/01/31 08:19:39;;;;;;;;;;;4.20;99.90;;;;;;5037304;28;19928;-52
2022/01/31 08:22:06;;;;;;;;;;;4.20;99.90;;;;;;5041897;28;19977;-52
2022/01/31 08:24:33;;;;;;;;;;;4.30;99.90;;;;;;5036404;28;19932;-59
2022/01/31 08:27:00;;;;;;;;;;;4.60;99.90;;;;;;5033857;28;20353;-52
2022/01/31 08:29:31;;;;;;;;;;;4.70;99.90;;;;;;5033995;28;19965;-52
2022/01/31 08:31:59;;;;;;;;;;;5.00;99.90;;;;;;5039434;28;19947;-51
2022/01/31 08:37:08;;;;;;;;;;;5.20;99.90;;;;;;5054002;28;20409;-52
2022/01/31 08:39:35;;;;;;;;;;;5.10;99.90;;;;;;5044177;28;19925;-52
2022/01/31 08:42:02;;;;;;;;;;;4.90;99.90;;;;;;5036036;28;19979;-52
2022/01/31 08:44:28;;;;;;;;;;;4.80;99.90;;;;;;5049130;28;19932;-52
2022/01/31 08:46:55;;;;;;;;;;;4.80;99.90;;;;;;5047433;28;20369;-52
2022/01/31 08:49:25;;;;;;;;;;;4.90;99.90;;;;;;5043646;28;19929;-52
2022/01/31 08:51:53;;;;;;;;;;;4.90;99.90;;;;;;5034494;28;19937;-51
2022/01/31 08:54:20;;;;;;;;;;;4.90;99.90;;;;;;5033168;28;20402;-51
2022/01/31 08:56:48;;;;;;;;;;;5.00;99.90;;;;;;5032434;28;19961;-52
2022/01/31 08:59:18;;;;;;;;;;;5.30;99.90;;;;;;5033032;28;19925;-51
2022/01/31 09:01:52;;;;;;;;;;;5.40;99.90;;;;;;5033445;28;19929;-51
2022/01/31 09:04:31;;;;;;;;;;;5.60;99.90;;;;;;5045829;28;20410;-51
2022/01/31 09:07:00;;;;;;;;;;;5.70;99.90;;;;;;5044301;28;20425;-51
2022/01/31 09:09:27;;;;;;;;;;;5.90;99.90;;;;;;5033660;28;19925;-51
2022/01/31 09:11:56;;;;;;;;;;;5.90;99.90;;;;;;5032914;28;19971;-52
2022/01/31 09:14:23;;;;;;;;;;;5.90;99.90;;;;;;5032895;28;19925;-51
2022/01/31 09:16:50;;;;;;;;;;;5.90;99.90;;;;;;5033133;28;19933;-52
2022/01/31 09:19:16;;;;;;;;;;;6.00;99.90;;;;;;5041620;28;19929;-51
2022/01/31 09:21:45;;;;;;;;;;;6.00;99.90;;;;;;5054914;28;19994;-52
2022/01/31 09:24:13;;;;;;;;;;;6.00;99.90;;;;;;5056675;28;19925;-51
2022/01/31 09:26:40;;;;;;;;;;;6.10;99.90;;;;;;5056909;28;19925;-52
2022/01/31 09:29:06;;;;;;;;;;;6.10;99.90;;;;;;5056110;28;19955;-52
2022/01/31 09:31:33;;;;;;;;;;;6.10;99.90;;;;;;5036415;28;20373;-52
2022/01/31 09:34:00;;;;;;;;;;;6.10;99.90;;;;;;5043544;28;19968;-51
2022/01/31 09:36:27;;;;;;;;;;;6.10;99.90;;;;;;5056029;28;19928;-51
2022/01/31 09:38:54;;;;;;;;;;;6.10;99.90;;;;;;5055831;28;20298;-52
2022/01/31 09:41:23;;;;;;;;;;;6.10;99.90;;;;;;5050694;28;20390;-52
2022/01/31 09:44:05;;;;;;;;;;;6.00;99.90;;;;;;5040306;28;19936;-52
2022/01/31 09:49:19;;;;;;;;;;;5.90;99.90;;;;;;5036420;28;19929;-52
2022/01/31 09:51:46;;;;;;;;;;;5.90;99.90;;;;;;5055002;28;19982;-52
2022/01/31 09:54:13;;;;;;;;;;;5.80;99.90;;;;;;5055615;28;19928;-52
2022/01/31 09:56:42;;;;;;;;;;;5.70;99.90;;;;;;5055574;28;19925;-52
2022/01/31 09:59:10;;;;;;;;;;;5.60;99.90;;;;;;5056301;28;19929;-51
2022/01/31 10:01:40;;;;;;;;;;;5.70;99.90;;;;;;5056380;28;19928;-52
2022/01/31 10:04:13;;;;;;;;;;;5.60;99.90;;;;;;5054425;28;19933;-51
2022/01/31 10:06:41;;;;;;;;;;;5.50;99.90;;;;;;5046875;28;19924;-52
2022/01/31 10:09:13;;;;;;;;;;;5.50;99.90;;;;;;5054195;28;19928;-51
2022/01/31 10:11:45;;;;;;;;;;;5.50;99.90;;;;;;5054198;28;19960;-51
2022/01/31 10:17:00;;;;;;;;;;;5.50;99.90;;;;;;5056253;28;19931;-51
2022/01/31 10:19:26;;;;;;;;;;;5.50;99.90;;;;;;5054634;28;20291;-51
2022/01/31 10:21:55;;;;;;;;;;;5.50;99.90;;;;;;5053876;28;19925;-52
2022/01/31 10:24:23;;;;;;;;;;;5.50;99.90;;;;;;5044051;28;19925;-52
2022/01/31 10:26:51;;;;;;;;;;;5.40;99.90;;;;;;5046051;28;19954;-51
2022/01/31 10:29:20;;;;;;;;;;;5.40;99.90;;;;;;5049129;28;19933;-51
2022/01/31 10:31:54;;;;;;;;;;;5.40;99.90;;;;;;5035521;28;19929;-51
2022/01/31 10:34:23;;;;;;;;;;;5.50;99.90;;;;;;5035845;28;19933;-52
2022/01/31 10:36:51;;;;;;;;;;;5.50;99.90;;;;;;5039998;28;19975;-52
2022/01/31 10:45:21;;;;;;;;;;;5.80;99.90;;;;;;5043741;28;19928;-51
2022/01/31 10:50:57;;;;;;;;;;;5.90;99.90;;;;;;5042150;28;19927;-51
2022/01/31 10:53:25;;;;;;;;;;;5.90;99.90;;;;;;5054698;28;19931;-51
2022/01/31 10:55:55;;;;;;;;;;;6.00;99.90;;;;;;5054290;28;19947;-51
2022/01/31 10:58:22;;;;;;;;;;;6.40;99.90;;;;;;5055268;28;20362;-52
2022/01/31 11:00:51;;;;;;;;;;;6.20;99.90;;;;;;5054995;28;20395;-51
2022/01/31 11:03:31;;;;;;;;;;;6.10;99.90;;;;;;5054208;28;19967;-51
2022/01/31 11:06:00;;;;;;;;;;;6.20;99.90;;;;;;5054714;28;19925;-51
2022/01/31 11:08:28;;;;;;;;;;;6.30;99.90;;;;;;5053919;28;19925;-51
2022/01/31 11:10:57;;;;;;;;;;;6.40;99.90;;;;;;5054656;28;19940;-51
2022/01/31 11:13:25;;;;;;;;;;;6.40;99.90;;;;;;5054700;28;20339;-51
2022/01/31 11:15:53;;;;;;;;;;;6.30;99.90;;;;;;5054451;28;19925;-51
2022/01/31 11:18:21;;;;;;;;;;;6.20;99.90;;;;;;5053883;28;19979;-51
2022/01/31 11:20:49;;;;;;;;;;;5.80;99.90;;;;;;5055194;28;19925;-51
2022/01/31 11:23:18;;;;;;;;;;;5.30;99.90;;;;;;5054792;28;20402;-51
2022/01/31 11:25:48;;;;;;;;;;;4.50;99.90;;;;;;5054504;28;20386;-51
2022/01/31 11:28:16;;;;;;;;;;;4.00;99.90;;;;;;5041224;28;19921;-50
2022/01/31 11:30:43;;;;;;;;;;;3.80;99.90;;;;;;5039666;28;19931;-51
2022/01/31 11:33:12;;;;;;;;;;;3.80;99.90;;;;;;5034642;28;20287;-51
2022/01/31 11:35:39;;;;;;;;;;;3.90;99.90;;;;;;5035281;28;19933;-56
2022/01/31 11:38:06;;;;;;;;;;;3.90;99.90;;;;;;5033527;28;19929;-51
2022/01/31 11:40:33;;;;;;;;;;;4.00;99.90;;;;;;5035011;28;19925;-51
2022/01/31 11:43:02;;;;;;;;;;;4.10;99.90;;;;;;5033906;28;19982;-51
2022/01/31 11:45:30;;;;;;;;;;;4.20;99.90;;;;;;5040640;28;19932;-51
2022/01/31 11:47:57;;;;;;;;;;;4.30;99.90;;;;;;5053079;28;20386;-52
2022/01/31 11:50:26;;;;;;;;;;;4.60;99.90;;;;;;5041693;28;19963;-51
2022/01/31 11:52:55;;;;;;;;;;;4.80;99.90;;;;;;5033950;28;19925;-52
2022/01/31 11:55:23;;;;;;;;;;;4.80;99.90;;;;;;5034046;28;19929;-51
2022/01/31 11:57:51;;;;;;;;;;;4.90;99.90;;;;;;5034178;28;19929;-51
2022/01/31 12:00:18;;;;;;;;;;;4.90;99.90;;;;;;5033253;28;20169;-51
2022/01/31 12:02:46;;;;;;;;;;;4.90;99.90;;;;;;5048509;28;19928;-51
2022/01/31 12:05:16;;;;;;;;;;;4.70;99.90;;;;;;5044471;28;19928;-52
2022/01/31 12:07:45;;;;;;;;;;;4.70;99.90;;;;;;5050719;28;19940;-52
2022/01/31 12:10:20;;;;;;;;;;;4.60;99.90;;;;;;5054683;28;19979;-52
2022/01/31 12:12:52;;;;;;;;;;;4.70;99.90;;;;;;5054254;28;19931;-52
2022/01/31 12:15:34;;;;;;;;;;;4.70;99.90;;;;;;5053588;28;19932;-53
2022/01/31 12:18:35;;;;;;;;;;;4.80;99.90;;;;;;5053831;28;19931;-52
2022/01/31 12:23:51;;;;;;;;;;;5.00;99.90;;;;;;5055970;28;19986;-53
2022/01/31 12:26:27;;;;;;;;;;;5.30;99.90;;;;;;5054614;28;19936;-53
2022/01/31 12:28:54;;;;;;;;;;;5.50;99.90;;;;;;5053541;28;19924;-53
2022/01/31 12:31:25;;;;;;;;;;;5.50;99.90;;;;;;5054434;28;20664;-55
2022/01/31 12:33:52;;;;;;;;;;;5.50;99.90;;;;;;5055790;28;19924;-52
2022/01/31 12:36:37;;;;;;;;;;;5.70;99.90;;;;;;5054284;28;20484;-52
2022/01/31 12:39:30;;;;;;;;;;;5.70;99.90;;;;;;5054571;28;20395;-54
2022/01/31 12:42:01;;;;;;;;;;;5.70;99.90;;;;;;5053544;28;19925;-52
2022/01/31 12:44:46;;;;;;;;;;;5.50;99.90;;;;;;5053688;28;20000;-53
2022/01/31 12:47:14;;;;;;;;;;;5.50;99.90;;;;;;5052769;28;20323;-53
2022/01/31 12:49:41;;;;;;;;;;;5.50;99.90;;;;;;5052015;28;19931;-53
2022/01/31 12:52:10;;;;;;;;;;;5.50;99.90;;;;;;5052441;28;20426;-53
2022/01/31 12:54:39;;;;;;;;;;;5.60;99.90;;;;;;5036305;28;19925;-54
2022/01/31 12:57:07;;;;;;;;;;;5.50;99.90;;;;;;5039810;28;19936;-53
2022/01/31 12:59:34;;;;;;;;;;;5.50;99.90;;;;;;5036788;28;19925;-53
2022/01/31 13:02:04;;;;;;;;;;;5.60;99.90;;;;;;5050402;28;20353;-53
2022/01/31 13:04:31;;;;;;;;;;;5.70;99.90;;;;;;5042372;28;19925;-53
2022/01/31 13:06:59;;;;;;;;;;;5.90;99.90;;;;;;5035864;28;20433;-53
2022/01/31 13:09:27;;;;;;;;;;;6.00;99.90;;;;;;5032010;28;20345;-53
2022/01/31 13:11:56;;;;;;;;;;;6.10;99.90;;;;;;5035376;28;19931;-53
2022/01/31 13:14:24;;;;;;;;;;;6.10;99.90;;;;;;5046881;28;19965;-54
2022/01/31 13:16:59;;;;;;;;;;;6.10;99.90;;;;;;5050547;28;20404;-53
2022/01/31 13:19:27;;;;;;;;;;;5.90;99.90;;;;;;5046183;28;20038;-53
2022/01/31 13:21:55;;;;;;;;;;;5.90;99.90;;;;;;5035568;28;20314;-53
2022/01/31 13:24:34;;;;;;;;;;;5.80;99.90;;;;;;5031449;28;19929;-52
2022/01/31 13:27:03;;;;;;;;;;;5.60;99.90;;;;;;5041601;28;20473;-53
2022/01/31 13:29:31;;;;;;;;;;;5.50;99.90;;;;;;5050642;28;19929;-53
2022/01/31 13:31:59;;;;;;;;;;;5.40;99.90;;;;;;5036854;28;19925;-53
2022/01/31 13:34:41;;;;;;;;;;;5.40;99.90;;;;;;5051433;28;19925;-52
2022/01/31 13:37:26;;;;;;;;;;;5.30;99.90;;;;;;5046701;28;19984;-53
2022/01/31 13:39:53;;;;;;;;;;;5.10;99.90;;;;;;5032726;28;19987;-53
2022/01/31 13:42:24;;;;;;;;;;;4.90;99.90;;;;;;5044260;28;19951;-53
2022/01/31 13:44:54;;;;;;;;;;;4.70;99.90;;;;;;5051955;28;19947;-52
2022/01/31 13:47:29;;;;;;;;;;;4.50;99.90;;;;;;5051993;28;19933;-53
2022/01/31 13:50:01;;;;;;;;;;;4.30;99.90;;;;;;5034965;28;19968;-53
2022/01/31 13:52:32;;;;;;;;;;;4.10;99.90;;;;;;5039574;28;19925;-53
2022/01/31 13:55:00;;;;;;;;;;;4.00;99.90;;;;;;5051457;28;20408;-53
2022/01/31 13:57:28;;;;;;;;;;;4.00;99.90;;;;;;5051099;28;19925;-53
2022/01/31 13:59:55;;;;;;;;;;;4.10;99.90;;;;;;5049727;28;19929;-53
2022/01/31 14:02:22;;;;;;;;;;;4.20;99.90;;;;;;5041644;28;19980;-53
2022/01/31 14:04:49;;;;;;;;;;;4.30;99.90;;;;;;5047627;28;19925;-53
2022/01/31 14:07:26;;;;;;;;;;;4.30;99.90;;;;;;5039523;28;19929;-53
2022/01/31 14:09:54;;;;;;;;;;;4.30;99.90;;;;;;5035260;28;20437;-53
2022/01/31 14:12:20;;;;;;;;;;;4.50;99.90;;;;;;5047303;28;20011;-52
2022/01/31 14:14:49;;;;;;;;;;;4.70;99.90;;;;;;5053897;28;19925;-53
2022/01/31 14:17:15;;;;;;;;;;;4.60;99.90;;;;;;5054494;28;19928;-53
2022/01/31 14:19:42;;;;;;;;;;;4.70;99.90;;;;;;5054480;28;19925;-53
2022/01/31 14:22:09;;;;;;;;;;;4.70;99.90;;;;;;5042072;28;19937;-53
2022/01/31 14:24:36;;;;;;;;;;;4.60;99.90;;;;;;5034859;28;20398;-53
2022/01/31 14:27:04;;;;;;;;;;;4.60;99.90;;;;;;5034883;28;20503;-53
2022/01/31 14:29:31;;;;;;;;;;;4.60;99.90;;;;;;5085935;22;19970;-48
2022/01/31 14:31:59;;;;;;;;;;;4.60;99.90;;;;;;5053609;28;20367;-50
2022/01/31 14:34:27;;;;;;;;;;;4.60;99.90;;;;;;5066301;28;19928;-50
2022/01/31 14:36:58;;;;;;;;;;;4.60;99.90;;;;;;5072404;28;20390;-49
2022/01/31 14:39:35;;;;;;;;;;;4.60;99.90;;;;;;5060803;28;19925;-49
2022/01/31 14:42:25;;;;;;;;;;;4.60;99.90;;;;;;5052976;28;19956;-50
2022/01/31 14:47:42;;;;;;;;;;;4.20;99.90;;;;;;5071551;28;19935;-50
2022/01/31 14:50:10;;;;;;;;;;;4.20;99.90;;;;;;5071250;28;19928;-50
2022/01/31 14:52:37;;;;;;;;;;;4.30;99.90;;;;;;5063008;28;19986;-50
2022/01/31 14:55:06;;;;;;;;;;;4.30;99.90;;;;;;5067471;28;19924;-50
2022/01/31 14:57:33;;;;;;;;;;;4.20;99.90;;;;;;5071277;28;20386;-50